Clifton Springs, New York
Current Conditions -  °F | °C
As of 8:53 PM on Monday 24 Nov 2014 (Local Time) from KPEO Reporting Station
Clear Clear  
Wind Chill: 56°   Ceiling: Unl
Heat Index: 56°   Visibility: 10mi
Dew Point: 44°   Wind: 13mph
Humidity: 64%   Direction: 230°SW
Pressure: 29.55"   Gusts: NA
Location:  42.96°N, 77.14°W
Report Text: KPEO 250153Z AUTO 23011KT 10SM CLR 13/07 A2955 RMK AO2 SLP005 T01330067
Loading
Personal Weather Stations






























Interactive Weather Map New forecast layout! Learn more

10-Day Weather Forecast

Advertisements
Track Severe Weather on mobile